Warren Jr — WDH4232 — position and weather

sailwx.info

Track history (hours):
 
Tides and Currents Weather Stations Pressure Air Temp Water Temp Dewpoint Dewpoint Depression Visibility Wind Speed Wind Dir Waves Ship Positions

Warren Jr

Owner: Warren Jr, LLC, Cape May, NJ. More information available from US FCC via Universal Licensing System and Coast Guard Vessel Documentation Center.

Last reported at 2018-May-18 19:19 UTC. Time now 2018-May-20 10:24 UTC.
Position N 42°23' W 071°03'.

Length 46 m; draft 3.2 m.

MMSI: 367615560.

Date/timePositionNaut miles runAvg speedWind from/ knotsBaromVisibWave heightAir tempDewpointWater temp
2018-May-18 19:19N 42°23' W 071°03'0 0.0
2018-May-18 19:01N 42°23' W 071°03'0 0.0
2018-May-18 18:27N 42°23' W 071°03'0 0.0
2018-May-18 17:58N 42°23' W 071°03'0 0.0
2018-May-18 17:28N 42°23' W 071°03'0 0.0
2018-May-18 16:58N 42°23' W 071°03'0 0.0
2018-May-18 16:28N 42°23' W 071°03'0 0.0
2018-May-18 15:58N 42°23' W 071°03'0 0.0
2018-May-18 15:28N 42°23' W 071°03'0 0.0
2018-May-18 14:58N 42°23' W 071°03'0 0.0
2018-May-18 14:28N 42°23' W 071°03'0 0.0
2018-May-18 13:58N 42°23' W 071°03'0 0.0
2018-May-17 21:15N 42°23' W 071°03'0 0.0
2018-May-17 21:01N 42°23' W 071°03'0 0.7
2018-May-17 20:30N 42°23' W 071°03'0 0.0
2018-May-17 20:00N 42°23' W 071°03'2 3.4
2018-May-17 19:30N 42°22' W 071°02'4 8.5
2018-May-17 19:01N 42°20' W 070°57'5 9.2
2018-May-17 18:30N 42°24' W 070°53'5 9.3
2018-May-17 18:00N 42°27' W 070°48'2 4.3
2018-May-17 17:30N 42°29' W 070°46'0 0.0
2018-May-17 17:00N 42°29' W 070°47'0 0.0
2018-May-17 16:31N 42°29' W 070°47'0 0.1
2018-May-17 16:01N 42°29' W 070°47'0 0.1
2018-May-17 15:31N 42°29' W 070°47'0 0.0
2018-May-17 15:00N 42°29' W 070°47'0 0.1
2018-May-17 14:30N 42°29' W 070°47'0 0.2
2018-May-17 14:00N 42°29' W 070°47'0 0.3
2018-May-17 13:30N 42°29' W 070°47'0 0.3
2018-May-17 13:01N 42°29' W 070°47'1 2.5
2018-May-17 12:30N 42°28' W 070°48'5 9.1
2018-May-17 11:58N 42°24' W 070°52'4 9.3
2018-May-17 11:31N 42°21' W 070°56'4 8.1
2018-May-17 11:01N 42°21' W 071°01'2 4.4
2018-May-17 10:30N 42°23' W 071°03'0 0.0
2018-May-17 10:00N 42°23' W 071°03'0 0.0
2018-May-17 09:31N 42°23' W 071°03'0 0.0
2018-May-17 09:00N 42°23' W 071°03'0 0.0
2018-May-17 08:30N 42°23' W 071°03'0 0.0
2018-May-17 08:00N 42°23' W 071°03'0 0.0
2018-May-17 07:31N 42°23' W 071°03'0 0.0
2018-May-17 07:00N 42°23' W 071°03'0 0.0
2018-May-17 06:30N 42°23' W 071°03'0 0.0
2018-May-17 06:00N 42°23' W 071°03'0 0.0
2018-May-17 05:30N 42°23' W 071°03'0 0.0
2018-May-17 05:00N 42°23' W 071°03'0 0.0
2018-May-17 04:30N 42°23' W 071°03'0 0.0
2018-May-17 04:00N 42°23' W 071°03'0 0.0
2018-May-17 03:30N 42°23' W 071°03'0 0.0
2018-May-17 03:00N 42°23' W 071°03'0 0.0
2018-May-17 02:31N 42°23' W 071°03'0 0.0
2018-May-17 02:01N 42°23' W 071°03'0 0.0
2018-May-17 01:31N 42°23' W 071°03'0 0.0
2018-May-17 01:00N 42°23' W 071°03'0 0.0
2018-May-17 00:30N 42°23' W 071°03'0 0.0
2018-May-17 00:00N 42°23' W 071°03'0 0.0
2018-May-16 23:30N 42°23' W 071°03'0 0.0
2018-May-16 23:00N 42°23' W 071°03'0 0.0
2018-May-16 22:30N 42°23' W 071°03'0 0.0
2018-May-16 22:00N 42°23' W 071°03'0 0.0
2018-May-16 21:30N 42°23' W 071°03'0 0.0
2018-May-16 21:00N 42°23' W 071°03'0 0.0
2018-May-16 20:30N 42°23' W 071°03'0 0.0
2018-May-16 20:00N 42°23' W 071°03'0 0.0
2018-May-16 19:30N 42°23' W 071°03'0 0.0
2018-May-16 19:01N 42°23' W 071°03'0 0.0
2018-May-16 18:30N 42°23' W 071°03'0 0.0
2018-May-16 18:00N 42°23' W 071°03'0 0.0
2018-May-16 17:30N 42°23' W 071°03'0 0.0
2018-May-16 17:00N 42°23' W 071°03'0 0.0
2018-May-16 16:31N 42°23' W 071°03'0 0.0
2018-May-16 16:00N 42°23' W 071°03'0 0.0
2018-May-16 15:30N 42°23' W 071°03'0 0.0
2018-May-16 15:00N 42°23' W 071°03'0 0.7
2018-May-16 14:30N 42°23' W 071°03'0 0.0
2018-May-16 14:00N 42°23' W 071°03'0 0.0
2018-May-16 13:30N 42°23' W 071°03'0 0.0
2018-May-16 13:00N 42°23' W 071°03'  
2018-May-10 21:04N 42°23' W 071°03'0 0.0
2018-May-10 21:00N 42°23' W 071°03'2 3.4
2018-May-10 20:30N 42°21' W 071°02'4 8.8
2018-May-10 20:00N 42°20' W 070°56'5 9.1
2018-May-10 19:30N 42°19' W 070°50'5 9.3
2018-May-10 19:00N 42°17' W 070°45'12 9.4
2018-May-10 17:46N 42°07' W 070°37'6 9.3
2018-May-10 17:09N 42°01' W 070°34'1 9.2
2018-May-10 17:00N 42°00' W 070°33'5 9.3
2018-May-10 16:30N 41°56' W 070°30'5 9.1
2018-May-10 16:00N 41°52' W 070°29'21 1.4
2018-May-10 00:55N 41°33' W 070°42'6 9.6
2018-May-10 00:18N 41°39' W 070°41'11 8.9
2018-May-09 23:01N 41°47' W 070°30'0 8.4
2018-May-09 23:00N 41°47' W 070°30'4 8.7
2018-May-09 22:30N 41°50' W 070°26'5 9.1
2018-May-09 22:00N 41°54' W 070°24'5 9.2
2018-May-09 21:26N 41°59' W 070°21'4 9.1
2018-May-09 20:59N 42°03' W 070°19'5 9.0
2018-May-09 20:28N 42°07' W 070°16'4 9.5
2018-May-09 20:00N 42°10' W 070°12'5 9.3
2018-May-09 19:29N 42°14' W 070°07'4 9.0
2018-May-09 19:00N 42°17' W 070°03'2 3.4
2018-May-09 18:30N 42°18' W 070°02'0 0.4
2018-May-09 18:00N 42°19' W 070°02'1 1.0
2018-May-09 17:31N 42°18' W 070°02'1 2.3
2018-May-09 17:01N 42°17' W 070°01'4 8.3
2018-May-09 16:30N 42°14' W 069°58'1 1.2
2018-May-09 16:01N 42°14' W 069°58'1 1.4
2018-May-09 15:30N 42°14' W 069°58'0 0.6
2018-May-09 15:01N 42°13' W 069°58'1 1.8
2018-May-09 14:30N 42°13' W 069°57'4 7.3
2018-May-09 14:00N 42°09' W 069°55'1 1.0
2018-May-09 13:29N 42°09' W 069°55'3 5.1
2018-May-09 12:57N 42°07' W 069°52'0 0.0
2018-May-09 12:30N 42°07' W 069°52'2 4.7
2018-May-09 11:59N 42°05' W 069°52'0 0.8
2018-May-09 11:30N 42°04' W 069°52'0 0.5
2018-May-09 11:00N 42°04' W 069°52'0 1.0
2018-May-09 10:31N 42°04' W 069°52'1 1.2
2018-May-09 10:01N 42°04' W 069°52'1 2.2
2018-May-09 09:31N 42°03' W 069°51'3 5.0
2018-May-09 09:00N 42°03' W 069°55'3 5.5
2018-May-09 08:30N 42°03' W 069°58'3 5.3
2018-May-09 08:00N 42°05' W 070°01'3 5.4
2018-May-09 07:30N 42°07' W 070°04'2 4.7
2018-May-09 07:00N 42°08' W 070°07'1 2.6
2018-May-09 06:30N 42°08' W 070°08'3 5.2
2018-May-09 06:00N 42°07' W 070°05'3 5.2
2018-May-09 05:30N 42°06' W 070°02'1 2.5
2018-May-09 05:00N 42°05' W 070°01'3 5.2
2018-May-09 04:29N 42°07' W 070°04'2 5.2
2018-May-09 04:01N 42°08' W 070°06'3 5.6
2018-May-09 03:30N 42°10' W 070°10'3 6.5
2018-May-09 03:00N 42°12' W 070°13'3 5.5
2018-May-09 02:28N 42°14' W 070°16'2 5.1
2018-May-09 02:00N 42°15' W 070°13'3 5.5
2018-May-09 01:30N 42°16' W 070°10'3 5.7
2018-May-09 01:00N 42°17' W 070°06'3 5.6
2018-May-09 00:30N 42°19' W 070°03'1 1.6
2018-May-09 00:00N 42°18' W 070°02'3 6.2
2018-May-08 23:31N 42°19' W 070°06'1 2.4
2018-May-08 23:00N 42°19' W 070°07'0 0.4
2018-May-08 22:30N 42°19' W 070°07'0 0.9
2018-May-08 22:00N 42°19' W 070°07'2 4.6
2018-May-08 21:31N 42°19' W 070°10'3 5.9
2018-May-08 21:01N 42°19' W 070°14'2 3.0
2018-May-08 20:30N 42°20' W 070°16'1 2.7
2018-May-08 20:01N 42°19' W 070°14'0 0.7
2018-May-08 19:30N 42°19' W 070°14'  
Track history (hours):
 
Tides and Currents Weather Stations Pressure Air Temp Water Temp Dewpoint Dewpoint Depression Visibility Wind Speed Wind Dir Waves Ship Positions

Warren Jr

Owner: Warren Jr, LLC, Cape May, NJ. More information available from US FCC via Universal Licensing System and Coast Guard Vessel Documentation Center.

Last reported at 2018-May-18 19:19 UTC. Time now 2018-May-20 10:24 UTC.
Position N 42°23' W 071°03'.

Length 46 m; draft 3.2 m.

MMSI: 367615560.

Date/timePositionNaut miles runAvg speedWind from/ knotsBaromVisibWave heightAir tempDewpointWater temp
2018-May-18 19:19N 42°23' W 071°03'0 0.0
2018-May-18 19:01N 42°23' W 071°03'0 0.0
2018-May-18 18:27N 42°23' W 071°03'0 0.0
2018-May-18 17:58N 42°23' W 071°03'0 0.0
2018-May-18 17:28N 42°23' W 071°03'0 0.0
2018-May-18 16:58N 42°23' W 071°03'0 0.0
2018-May-18 16:28N 42°23' W 071°03'0 0.0
2018-May-18 15:58N 42°23' W 071°03'0 0.0
2018-May-18 15:28N 42°23' W 071°03'0 0.0
2018-May-18 14:58N 42°23' W 071°03'0 0.0
2018-May-18 14:28N 42°23' W 071°03'0 0.0
2018-May-18 13:58N 42°23' W 071°03'0 0.0
2018-May-17 21:15N 42°23' W 071°03'0 0.0
2018-May-17 21:01N 42°23' W 071°03'0 0.7
2018-May-17 20:30N 42°23' W 071°03'0 0.0
2018-May-17 20:00N 42°23' W 071°03'2 3.4
2018-May-17 19:30N 42°22' W 071°02'4 8.5
2018-May-17 19:01N 42°20' W 070°57'5 9.2
2018-May-17 18:30N 42°24' W 070°53'5 9.3
2018-May-17 18:00N 42°27' W 070°48'2 4.3
2018-May-17 17:30N 42°29' W 070°46'0 0.0
2018-May-17 17:00N 42°29' W 070°47'0 0.0
2018-May-17 16:31N 42°29' W 070°47'0 0.1
2018-May-17 16:01N 42°29' W 070°47'0 0.1
2018-May-17 15:31N 42°29' W 070°47'0 0.0
2018-May-17 15:00N 42°29' W 070°47'0 0.1
2018-May-17 14:30N 42°29' W 070°47'0 0.2
2018-May-17 14:00N 42°29' W 070°47'0 0.3
2018-May-17 13:30N 42°29' W 070°47'0 0.3
2018-May-17 13:01N 42°29' W 070°47'1 2.5
2018-May-17 12:30N 42°28' W 070°48'5 9.1
2018-May-17 11:58N 42°24' W 070°52'4 9.3
2018-May-17 11:31N 42°21' W 070°56'4 8.1
2018-May-17 11:01N 42°21' W 071°01'2 4.4
2018-May-17 10:30N 42°23' W 071°03'0 0.0
2018-May-17 10:00N 42°23' W 071°03'0 0.0
2018-May-17 09:31N 42°23' W 071°03'0 0.0
2018-May-17 09:00N 42°23' W 071°03'0 0.0
2018-May-17 08:30N 42°23' W 071°03'0 0.0
2018-May-17 08:00N 42°23' W 071°03'0 0.0
2018-May-17 07:31N 42°23' W 071°03'0 0.0
2018-May-17 07:00N 42°23' W 071°03'0 0.0
2018-May-17 06:30N 42°23' W 071°03'0 0.0
2018-May-17 06:00N 42°23' W 071°03'0 0.0
2018-May-17 05:30N 42°23' W 071°03'0 0.0
2018-May-17 05:00N 42°23' W 071°03'0 0.0
2018-May-17 04:30N 42°23' W 071°03'0 0.0
2018-May-17 04:00N 42°23' W 071°03'0 0.0
2018-May-17 03:30N 42°23' W 071°03'0 0.0
2018-May-17 03:00N 42°23' W 071°03'0 0.0
2018-May-17 02:31N 42°23' W 071°03'0 0.0
2018-May-17 02:01N 42°23' W 071°03'0 0.0
2018-May-17 01:31N 42°23' W 071°03'0 0.0
2018-May-17 01:00N 42°23' W 071°03'0 0.0
2018-May-17 00:30N 42°23' W 071°03'0 0.0
2018-May-17 00:00N 42°23' W 071°03'0 0.0
2018-May-16 23:30N 42°23' W 071°03'0 0.0
2018-May-16 23:00N 42°23' W 071°03'0 0.0
2018-May-16 22:30N 42°23' W 071°03'0 0.0
2018-May-16 22:00N 42°23' W 071°03'0 0.0
2018-May-16 21:30N 42°23' W 071°03'0 0.0
2018-May-16 21:00N 42°23' W 071°03'0 0.0
2018-May-16 20:30N 42°23' W 071°03'0 0.0
2018-May-16 20:00N 42°23' W 071°03'0 0.0
2018-May-16 19:30N 42°23' W 071°03'0 0.0
2018-May-16 19:01N 42°23' W 071°03'0 0.0
2018-May-16 18:30N 42°23' W 071°03'0 0.0
2018-May-16 18:00N 42°23' W 071°03'0 0.0
2018-May-16 17:30N 42°23' W 071°03'0 0.0
2018-May-16 17:00N 42°23' W 071°03'0 0.0
2018-May-16 16:31N 42°23' W 071°03'0 0.0
2018-May-16 16:00N 42°23' W 071°03'0 0.0
2018-May-16 15:30N 42°23' W 071°03'0 0.0
2018-May-16 15:00N 42°23' W 071°03'0 0.7
2018-May-16 14:30N 42°23' W 071°03'0 0.0
2018-May-16 14:00N 42°23' W 071°03'0 0.0
2018-May-16 13:30N 42°23' W 071°03'0 0.0
2018-May-16 13:00N 42°23' W 071°03'  
2018-May-10 21:04N 42°23' W 071°03'0 0.0
2018-May-10 21:00N 42°23' W 071°03'2 3.4
2018-May-10 20:30N 42°21' W 071°02'4 8.8
2018-May-10 20:00N 42°20' W 070°56'5 9.1
2018-May-10 19:30N 42°19' W 070°50'5 9.3
2018-May-10 19:00N 42°17' W 070°45'12 9.4
2018-May-10 17:46N 42°07' W 070°37'6 9.3
2018-May-10 17:09N 42°01' W 070°34'1 9.2
2018-May-10 17:00N 42°00' W 070°33'5 9.3
2018-May-10 16:30N 41°56' W 070°30'5 9.1
2018-May-10 16:00N 41°52' W 070°29'21 1.4
2018-May-10 00:55N 41°33' W 070°42'6 9.6
2018-May-10 00:18N 41°39' W 070°41'11 8.9
2018-May-09 23:01N 41°47' W 070°30'0 8.4
2018-May-09 23:00N 41°47' W 070°30'4 8.7
2018-May-09 22:30N 41°50' W 070°26'5 9.1
2018-May-09 22:00N 41°54' W 070°24'5 9.2
2018-May-09 21:26N 41°59' W 070°21'4 9.1
2018-May-09 20:59N 42°03' W 070°19'5 9.0
2018-May-09 20:28N 42°07' W 070°16'4 9.5
2018-May-09 20:00N 42°10' W 070°12'5 9.3
2018-May-09 19:29N 42°14' W 070°07'4 9.0
2018-May-09 19:00N 42°17' W 070°03'2 3.4
2018-May-09 18:30N 42°18' W 070°02'0 0.4
2018-May-09 18:00N 42°19' W 070°02'1 1.0
2018-May-09 17:31N 42°18' W 070°02'1 2.3
2018-May-09 17:01N 42°17' W 070°01'4 8.3
2018-May-09 16:30N 42°14' W 069°58'1 1.2
2018-May-09 16:01N 42°14' W 069°58'1 1.4
2018-May-09 15:30N 42°14' W 069°58'0 0.6
2018-May-09 15:01N 42°13' W 069°58'1 1.8
2018-May-09 14:30N 42°13' W 069°57'4 7.3
2018-May-09 14:00N 42°09' W 069°55'1 1.0
2018-May-09 13:29N 42°09' W 069°55'3 5.1
2018-May-09 12:57N 42°07' W 069°52'0 0.0
2018-May-09 12:30N 42°07' W 069°52'2 4.7
2018-May-09 11:59N 42°05' W 069°52'0 0.8
2018-May-09 11:30N 42°04' W 069°52'0 0.5
2018-May-09 11:00N 42°04' W 069°52'0 1.0
2018-May-09 10:31N 42°04' W 069°52'1 1.2
2018-May-09 10:01N 42°04' W 069°52'1 2.2
2018-May-09 09:31N 42°03' W 069°51'3 5.0
2018-May-09 09:00N 42°03' W 069°55'3 5.5
2018-May-09 08:30N 42°03' W 069°58'3 5.3
2018-May-09 08:00N 42°05' W 070°01'3 5.4
2018-May-09 07:30N 42°07' W 070°04'2 4.7
2018-May-09 07:00N 42°08' W 070°07'1 2.6
2018-May-09 06:30N 42°08' W 070°08'3 5.2
2018-May-09 06:00N 42°07' W 070°05'3 5.2
2018-May-09 05:30N 42°06' W 070°02'1 2.5
2018-May-09 05:00N 42°05' W 070°01'3 5.2
2018-May-09 04:29N 42°07' W 070°04'2 5.2
2018-May-09 04:01N 42°08' W 070°06'3 5.6
2018-May-09 03:30N 42°10' W 070°10'3 6.5
2018-May-09 03:00N 42°12' W 070°13'3 5.5
2018-May-09 02:28N 42°14' W 070°16'2 5.1
2018-May-09 02:00N 42°15' W 070°13'3 5.5
2018-May-09 01:30N 42°16' W 070°10'3 5.7
2018-May-09 01:00N 42°17' W 070°06'3 5.6
2018-May-09 00:30N 42°19' W 070°03'1 1.6
2018-May-09 00:00N 42°18' W 070°02'3 6.2
2018-May-08 23:31N 42°19' W 070°06'1 2.4
2018-May-08 23:00N 42°19' W 070°07'0 0.4
2018-May-08 22:30N 42°19' W 070°07'0 0.9
2018-May-08 22:00N 42°19' W 070°07'2 4.6
2018-May-08 21:31N 42°19' W 070°10'3 5.9
2018-May-08 21:01N 42°19' W 070°14'2 3.0
2018-May-08 20:30N 42°20' W 070°16'1 2.7
2018-May-08 20:01N 42°19' W 070°14'0 0.7
2018-May-08 19:30N 42°19' W 070°14'  

Dump ship's entire track history